Time;durP1;ratioP1;P1;durP2;ratioP2;P2;SDS_P1;SDS_P2;PMS_P1;PMS_P2;Temp;Humidity;BMP_temperature;BMP_pressure;BME280_temperature;BME280_humidity;BME280_pressure;Samples;Min_cycle;Max_cycle;Signal;HPM_P1;HPM_P2
2022/10/16 00:01:29;;;;;;;1.67;0.95;;;14.80;99.90;;;14.41;100.00;97144.72;4992827;28;20033;-48
2022/10/16 00:03:57;;;;;;;2.08;1.20;;;14.70;99.90;;;14.38;100.00;97145.75;5011302;28;20083;-46
2022/10/16 00:06:23;;;;;;;1.75;1.25;;;14.70;99.90;;;14.35;100.00;97134.47;5007135;28;20022;-46
2022/10/16 00:08:50;;;;;;;1.23;1.10;;;14.70;99.90;;;14.33;100.00;97131.88;5007654;28;20514;-45
2022/10/16 00:11:37;;;;;;;4.85;1.17;;;14.70;99.90;;;14.30;100.00;97135.59;5005055;28;20026;-47
2022/10/16 00:14:07;;;;;;;1.48;1.00;;;14.60;99.90;;;14.28;100.00;97131.28;4999889;28;20323;-49
2022/10/16 00:16:34;;;;;;;2.60;1.10;;;14.60;99.90;;;14.25;100.00;97134.97;5010111;28;20045;-44
2022/10/16 00:19:00;;;;;;;1.15;1.02;;;14.60;99.90;;;14.20;100.00;97141.50;4992933;28;20073;-47
2022/10/16 00:21:29;;;;;;;1.70;0.95;;;14.50;99.90;;;14.14;100.00;97129.44;5011530;28;20029;-46
2022/10/16 00:24:00;;;;;;;0.82;0.82;;;14.50;99.90;;;14.09;100.00;97124.38;5007487;28;20132;-49
2022/10/16 00:26:28;;;;;;;1.33;1.02;;;14.40;99.90;;;14.02;100.00;97125.66;5011773;28;20040;-46
2022/10/16 00:28:54;;;;;;;2.08;1.10;;;14.40;99.90;;;13.98;100.00;97133.84;4991720;28;20068;-45
2022/10/16 00:31:22;;;;;;;1.10;1.00;;;14.30;99.90;;;13.92;100.00;97127.94;5014567;28;20021;-49
2022/10/16 00:33:48;;;;;;;1.48;0.93;;;14.30;99.90;;;13.88;100.00;97129.03;5010296;28;20405;-48
2022/10/16 00:36:18;;;;;;;1.50;0.95;;;14.20;99.90;;;13.84;100.00;97139.91;5012390;28;20037;-49
2022/10/16 00:38:44;;;;;;;2.15;1.25;;;14.20;99.90;;;13.75;100.00;97135.97;5008895;28;20170;-45
2022/10/16 00:41:14;;;;;;;1.75;1.10;;;14.10;99.90;;;13.76;100.00;97140.31;5012113;28;20033;-47
2022/10/16 00:43:43;;;;;;;1.77;1.00;;;14.10;99.90;;;13.71;100.00;97142.34;4991566;28;20072;-49
2022/10/16 00:46:22;;;;;;;1.40;1.13;;;14.10;99.90;;;13.68;100.00;97142.53;5004689;28;20263;-47
2022/10/16 00:49:03;;;;;;;2.63;1.30;;;14.10;99.90;;;13.65;100.00;97146.19;5009972;28;20030;-46
2022/10/16 00:51:40;;;;;;;2.08;1.20;;;14.00;99.90;;;13.65;100.00;97140.03;4997162;28;20128;-46
2022/10/16 00:54:16;;;;;;;1.70;1.20;;;14.00;99.90;;;13.62;100.00;97129.59;5010560;28;20029;-45
2022/10/16 00:56:43;;;;;;;3.42;1.30;;;14.00;99.90;;;13.67;100.00;97138.16;5009764;28;20032;-45
2022/10/16 00:59:24;;;;;;;1.88;1.10;;;14.00;99.90;;;13.69;100.00;97139.81;4998309;28;20064;-45
2022/10/16 01:01:50;;;;;;;1.50;1.10;;;14.00;99.90;;;13.73;100.00;97133.38;5015577;28;20283;-45
2022/10/16 01:04:16;;;;;;;2.05;1.10;;;14.10;99.90;;;13.79;100.00;97147.25;5000659;28;20037;-46
2022/10/16 01:06:54;;;;;;;1.30;1.10;;;14.10;99.90;;;13.80;100.00;97154.25;5019006;28;20568;-46
2022/10/16 01:10:01;;;;;;;1.05;0.80;;;14.10;99.90;;;13.88;100.00;97154.72;5001815;28;20060;-45
2022/10/16 01:12:53;;;;;;;1.67;1.08;;;14.20;99.90;;;13.91;100.00;97157.19;5017667;28;20061;-44
2022/10/16 01:15:47;;;;;;;1.63;1.30;;;14.30;99.90;;;13.96;100.00;97159.59;5011601;28;20884;-48
2022/10/16 01:19:15;;;;;;;1.48;1.13;;;14.30;99.90;;;14.00;100.00;97166.41;5012890;28;20060;-49
2022/10/16 01:21:47;;;;;;;1.45;1.10;;;14.30;99.90;;;14.05;100.00;97161.72;4905264;29;20122;-48
2022/10/16 01:24:38;;;;;;;1.48;1.00;;;14.40;99.90;;;14.06;100.00;97144.91;4989744;28;20049;-48
2022/10/16 01:27:17;;;;;;;5.75;1.50;;;14.40;99.90;;;14.07;100.00;97149.28;5014922;28;20083;-46
2022/10/16 01:29:57;;;;;;;3.70;1.10;;;14.40;99.90;;;14.08;100.00;97143.84;4995783;28;20033;-45
2022/10/16 01:32:32;;;;;;;1.35;1.00;;;14.40;99.90;;;14.10;100.00;97146.44;5002949;28;20114;-45
2022/10/16 01:35:35;;;;;;;1.42;1.00;;;14.40;99.90;;;14.07;100.00;97149.28;4997798;28;20033;-45
2022/10/16 01:38:16;;;;;;;3.92;1.10;;;14.40;99.90;;;14.05;100.00;97138.75;4983164;28;20430;-44
2022/10/16 01:40:51;;;;;;;1.50;1.20;;;14.50;99.90;;;14.08;100.00;97143.84;5000181;28;20033;-46
2022/10/16 01:43:23;;;;;;;1.17;1.00;;;14.40;99.90;;;14.08;100.00;97150.97;5000219;28;20654;-44
2022/10/16 01:45:50;;;;;;;1.27;0.95;;;14.40;99.90;;;14.08;100.00;97148.31;5015869;28;20038;-47
2022/10/16 01:48:19;;;;;;;1.17;1.00;;;14.40;99.90;;;14.08;100.00;97143.84;4996674;28;20132;-44
2022/10/16 01:51:02;;;;;;;2.88;1.20;;;14.40;99.90;;;14.09;100.00;97145.56;4994958;28;20064;-46
2022/10/16 01:53:29;;;;;;;2.55;1.00;;;14.50;99.90;;;14.11;100.00;97140.19;4992746;28;20058;-45
2022/10/16 01:55:57;;;;;;;2.85;1.45;;;14.50;99.90;;;14.06;100.00;97121.03;4992961;28;20064;-45
2022/10/16 01:58:25;;;;;;;1.13;0.88;;;14.40;99.90;;;14.10;100.00;97136.69;4996898;28;20471;-44
2022/10/16 02:00:53;;;;;;;1.58;0.90;;;14.50;99.90;;;14.12;100.00;97134.81;5012221;28;20753;-44
2022/10/16 02:03:20;;;;;;;3.58;1.02;;;14.50;99.90;;;14.12;100.00;97137.47;5009984;28;20041;-46
2022/10/16 02:05:51;;;;;;;1.63;1.02;;;14.50;99.90;;;14.11;100.00;97137.53;4995002;28;20099;-49
2022/10/16 02:08:17;;;;;;;3.45;1.17;;;14.50;99.90;;;14.13;100.00;97135.66;4992949;28;20044;-46
2022/10/16 02:10:43;;;;;;;0.93;0.73;;;14.50;99.90;;;14.06;100.00;97118.38;5013226;28;20045;-48
2022/10/16 02:13:17;;;;;;;1.08;0.80;;;14.50;99.90;;;14.09;100.00;97126.16;5011165;28;20035;-46
2022/10/16 02:15:43;;;;;;;1.77;1.00;;;14.50;99.90;;;14.12;100.00;97132.16;4995798;28;20088;-49
2022/10/16 02:18:09;;;;;;;1.90;1.20;;;14.50;99.90;;;14.14;100.00;97140.03;5007883;28;20129;-49
2022/10/16 02:21:23;;;;;;;1.23;0.90;;;14.50;99.90;;;14.15;100.00;97133.78;4991009;28;20056;-46
2022/10/16 02:24:20;;;;;;;4.07;0.90;;;14.50;99.90;;;14.18;100.00;97140.72;4918661;28;20049;-46
2022/10/16 02:27:03;;;;;;;1.75;1.17;;;14.50;99.90;;;14.17;100.00;97141.66;5010368;28;20474;-49
2022/10/16 02:29:28;;;;;;;1.27;1.00;;;14.50;99.90;;;14.13;100.00;97139.16;4994105;28;20734;-46
2022/10/16 02:32:00;;;;;;;1.20;0.90;;;14.50;99.90;;;14.14;100.00;97126.78;5010345;28;20042;-46
2022/10/16 02:34:28;;;;;;;1.42;1.20;;;14.50;99.90;;;14.18;100.00;97127.47;4995605;28;20068;-46
2022/10/16 02:36:58;;;;;;;2.55;1.05;;;14.50;99.90;;;14.19;100.00;97127.34;5010518;28;20070;-47
2022/10/16 02:39:25;;;;;;;1.65;1.05;;;14.60;99.90;;;14.25;100.00;97132.31;4992271;28;20029;-48
2022/10/16 02:41:51;;;;;;;3.15;1.20;;;14.60;99.90;;;14.27;100.00;97142.84;4987086;28;20586;-49
2022/10/16 02:44:17;;;;;;;1.98;1.00;;;14.60;99.90;;;14.26;100.00;97130.53;5008728;28;20752;-49
2022/10/16 02:46:42;;;;;;;2.45;1.20;;;14.60;99.90;;;14.27;100.00;97129.59;5005630;28;20037;-47
2022/10/16 02:49:08;;;;;;;1.67;1.10;;;14.60;99.90;;;14.27;100.00;97130.44;5004467;28;20034;-44
2022/10/16 02:51:34;;;;;;;1.80;1.30;;;14.60;99.90;;;14.28;100.00;97140.13;5008097;28;20021;-46
2022/10/16 02:53:59;;;;;;;1.25;0.95;;;14.60;99.90;;;14.29;100.00;97141.81;5003727;28;20384;-47
2022/10/16 02:56:25;;;;;;;1.00;0.80;;;14.60;99.90;;;14.28;100.00;97148.06;5006871;28;20026;-48
2022/10/16 02:58:51;;;;;;;1.10;0.82;;;14.60;99.90;;;14.26;100.00;97151.75;5008550;28;20033;-47
2022/10/16 03:01:16;;;;;;;1.63;0.88;;;14.60;99.90;;;14.29;100.00;97154.22;5008251;28;20038;-46
2022/10/16 03:03:42;;;;;;;1.10;0.80;;;14.60;99.90;;;14.30;100.00;97161.22;5011710;28;20022;-48
2022/10/16 03:06:08;;;;;;;1.23;0.90;;;14.60;99.90;;;14.31;100.00;97155.00;5005823;28;20110;-45
2022/10/16 03:08:34;;;;;;;3.55;0.95;;;14.60;99.90;;;14.28;100.00;97147.19;5007115;28;20485;-45
2022/10/16 03:11:00;;;;;;;1.98;1.35;;;14.60;99.90;;;14.26;100.00;97149.94;5004479;28;20048;-45
2022/10/16 03:13:25;;;;;;;1.38;0.80;;;14.60;99.90;;;14.26;100.00;97157.03;5007283;28;20042;-45
2022/10/16 03:15:51;;;;;;;1.50;1.20;;;14.60;99.90;;;14.24;100.00;97153.63;4988466;28;20128;-44
2022/10/16 03:18:17;;;;;;;1.23;0.90;;;14.60;99.90;;;14.07;100.00;97131.56;5008904;28;20029;-45
2022/10/16 03:20:43;;;;;;;1.30;0.98;;;14.60;99.90;;;14.21;100.00;97154.66;5005064;28;20061;-45
2022/10/16 03:23:09;;;;;;;1.35;0.90;;;14.50;99.90;;;14.20;100.00;97155.59;4987711;28;20404;-46
2022/10/16 03:25:35;;;;;;;1.00;0.77;;;14.50;99.90;;;14.12;100.00;97156.03;5006477;28;20028;-47
2022/10/16 03:28:00;;;;;;;2.80;1.00;;;14.50;99.90;;;14.14;100.00;97153.28;5011627;28;20132;-45
2022/10/16 03:30:26;;;;;;;2.30;1.00;;;14.50;99.90;;;14.17;100.00;97162.88;5009020;28;20186;-46
2022/10/16 03:32:53;;;;;;;2.78;1.05;;;14.50;99.90;;;14.17;100.00;97154.91;5006995;28;20055;-45
2022/10/16 03:35:20;;;;;;;2.00;0.95;;;14.50;99.90;;;14.15;100.00;97151.50;5014822;23;20057;-42
2022/10/16 03:37:46;;;;;;;1.45;1.15;;;14.50;99.90;;;14.12;100.00;97163.09;4986760;28;20030;-42
2022/10/16 03:40:13;;;;;;;1.38;0.80;;;14.50;99.90;;;14.13;100.00;97157.72;4988631;28;20052;-44
2022/10/16 03:42:39;;;;;;;1.63;0.98;;;14.50;99.90;;;14.13;100.00;97156.88;4988758;28;20041;-42
2022/10/16 03:45:06;;;;;;;2.42;0.82;;;14.50;99.90;;;14.12;100.00;97150.72;4986150;28;20034;-43
2022/10/16 03:47:32;;;;;;;1.40;1.00;;;14.50;99.90;;;14.09;100.00;97156.19;4989126;28;20034;-42
2022/10/16 03:49:59;;;;;;;1.33;1.10;;;14.40;99.90;;;14.00;100.00;97145.22;4970038;28;20101;-42
2022/10/16 03:52:25;;;;;;;4.10;0.90;;;14.40;99.90;;;14.04;100.00;97157.38;4988437;28;20124;-43
2022/10/16 03:54:51;;;;;;;2.20;1.00;;;14.40;99.90;;;14.03;100.00;97160.97;4985202;28;20040;-41
2022/10/16 03:57:17;;;;;;;2.42;1.05;;;14.40;99.90;;;13.95;100.00;97158.75;4986209;28;20070;-45
2022/10/16 03:59:43;;;;;;;0.80;0.77;;;14.30;99.90;;;13.96;100.00;97167.53;4989638;28;20110;-42
2022/10/16 04:02:09;;;;;;;0.98;0.88;;;14.30;99.90;;;13.92;100.00;97167.69;4986178;28;20121;-43
2022/10/16 04:04:35;;;;;;;0.95;0.80;;;14.30;99.90;;;13.92;100.00;97167.69;4988783;28;20038;-41
2022/10/16 04:07:00;;;;;;;1.40;0.98;;;14.30;99.90;;;13.87;100.00;97159.16;4985327;28;20613;-43
2022/10/16 04:09:26;;;;;;;1.98;0.90;;;14.30;99.90;;;13.87;100.00;97160.94;4989313;28;20564;-44
2022/10/16 04:11:52;;;;;;;3.20;0.90;;;14.20;99.90;;;13.86;100.00;97168.03;4991026;28;20046;-43
2022/10/16 04:14:18;;;;;;;1.58;1.08;;;14.20;99.90;;;13.81;100.00;97162.13;4987885;28;20571;-42
2022/10/16 04:16:43;;;;;;;2.13;1.27;;;14.20;99.90;;;13.79;100.00;97171.09;4990780;28;20467;-42
2022/10/16 04:19:10;;;;;;;1.58;1.10;;;14.10;99.90;;;13.77;100.00;97162.38;4987717;28;20050;-43
2022/10/16 04:21:36;;;;;;;1.08;0.90;;;14.10;99.90;;;13.76;100.00;97164.16;4984483;28;20155;-42
2022/10/16 04:24:02;;;;;;;1.80;1.20;;;14.10;99.90;;;13.69;100.00;97149.53;4988363;28;20026;-41
2022/10/16 04:26:28;;;;;;;1.42;1.00;;;14.10;99.90;;;13.75;100.00;97165.97;4962458;28;20495;-42
2022/10/16 04:28:54;;;;;;;1.13;1.00;;;14.10;99.90;;;13.75;100.00;97165.13;4988053;28;20046;-41
2022/10/16 04:31:20;;;;;;;1.85;0.93;;;14.10;99.90;;;13.72;100.00;97152.03;4987656;28;20057;-42
2022/10/16 04:33:46;;;;;;;1.58;0.85;;;14.10;99.90;;;13.74;100.00;97158.94;4991560;28;20033;-43
2022/10/16 04:36:12;;;;;;;2.92;1.40;;;14.10;99.90;;;13.74;100.00;97169.53;4988684;28;20030;-41
2022/10/16 04:38:39;;;;;;;2.63;1.02;;;14.10;99.90;;;13.75;100.00;97163.31;4992999;28;20089;-42
2022/10/16 04:41:06;;;;;;;1.50;1.10;;;14.10;99.90;;;13.77;100.00;97168.53;4988058;28;20040;-42
2022/10/16 04:43:32;;;;;;;1.52;1.00;;;14.10;99.90;;;13.79;100.00;97168.47;4987203;28;20030;-42
2022/10/16 04:45:58;;;;;;;0.93;0.80;;;14.10;99.90;;;13.78;100.00;97170.22;4990889;28;20057;-44
2022/10/16 04:48:24;;;;;;;2.55;0.93;;;14.20;99.90;;;13.82;100.00;97182.41;4985879;28;20495;-41
2022/10/16 04:50:49;;;;;;;1.50;1.20;;;14.20;99.90;;;13.82;100.00;97189.47;4986815;28;20044;-41
2022/10/16 04:53:15;;;;;;;1.10;0.98;;;14.20;99.90;;;13.77;100.00;97179.13;4985289;28;20037;-42
2022/10/16 04:55:42;;;;;;;1.80;0.85;;;14.20;99.90;;;13.80;100.00;97186.94;4987257;28;20030;-42
2022/10/16 04:58:08;;;;;;;1.85;1.13;;;14.20;99.90;;;13.67;100.00;97170.81;4991450;28;20029;-42
2022/10/16 05:00:34;;;;;;;1.23;0.90;;;14.10;99.90;;;13.79;100.00;97198.47;4990687;28;20038;-42
2022/10/16 05:03:00;;;;;;;1.58;1.00;;;14.10;99.90;;;13.77;100.00;97194.19;4969012;28;20052;-41
2022/10/16 05:05:27;;;;;;;2.20;1.10;;;14.10;99.90;;;13.77;100.00;97197.69;4983726;28;20357;-42
2022/10/16 05:07:53;;;;;;;1.00;0.88;;;14.10;99.90;;;13.78;100.00;97201.19;4987098;28;20144;-42
2022/10/16 05:10:19;;;;;;;1.08;0.98;;;14.20;99.90;;;13.78;100.00;97196.72;4986365;28;21486;-41
2022/10/16 05:12:46;;;;;;;1.60;0.90;;;14.20;99.90;;;13.79;100.00;97200.25;4969766;28;20040;-43
2022/10/16 05:15:12;;;;;;;1.40;0.90;;;14.10;99.90;;;13.78;100.00;97201.19;4988712;28;20069;-41
2022/10/16 05:17:38;;;;;;;1.27;1.02;;;14.10;99.90;;;13.76;100.00;97201.25;4989639;28;20092;-42
2022/10/16 05:20:05;;;;;;;1.05;0.95;;;14.10;99.90;;;13.76;100.00;97201.25;4986411;28;20041;-42
2022/10/16 05:22:30;;;;;;;1.92;0.90;;;14.10;99.90;;;13.75;100.00;97192.47;4988107;28;20113;-42
2022/10/16 05:24:56;;;;;;;3.78;1.00;;;14.10;99.90;;;13.74;100.00;97195.19;4987589;28;20022;-42
2022/10/16 05:27:22;;;;;;;1.08;0.95;;;14.10;99.90;;;13.71;100.00;97192.69;4988681;28;20034;-41
2022/10/16 05:29:49;;;;;;;2.63;1.10;;;14.10;99.90;;;13.69;100.00;97199.88;4991158;28;20104;-42
2022/10/16 05:32:18;;;;;;;1.00;0.90;;;14.10;99.90;;;13.70;100.00;97196.31;4992471;28;20057;-42
2022/10/16 05:34:44;;;;;;;1.85;1.05;;;14.10;99.90;;;13.69;100.00;97191.94;4989776;28;20088;-42
2022/10/16 05:37:11;;;;;;;2.28;1.00;;;14.10;99.90;;;13.58;100.00;97183.69;4967750;28;20048;-41
2022/10/16 05:39:38;;;;;;;1.63;1.10;;;14.10;99.90;;;13.64;100.00;97204.56;4981368;28;20190;-42
2022/10/16 05:42:04;;;;;;;1.23;1.10;;;14.00;99.90;;;13.57;100.00;97212.00;4991281;28;20026;-41
2022/10/16 05:44:30;;;;;;;1.50;1.20;;;14.00;99.90;;;13.54;100.00;97213.00;4981895;28;20032;-42
2022/10/16 05:46:56;;;;;;;4.60;1.02;;;13.90;99.90;;;13.52;100.00;97209.56;4991940;28;20694;-42
2022/10/16 05:49:22;;;;;;;1.85;1.05;;;13.90;99.90;;;13.53;100.00;97208.66;4991797;28;20509;-42
2022/10/16 05:51:47;;;;;;;2.25;1.10;;;13.90;99.90;;;13.55;100.00;97212.06;4990073;28;20380;-42
2022/10/16 05:54:13;;;;;;;2.28;0.90;;;13.90;99.90;;;13.58;100.00;97213.69;4988778;28;20041;-41
2022/10/16 05:56:39;;;;;;;1.70;1.08;;;13.90;99.90;;;13.61;100.00;97220.63;4990310;28;20066;-43
2022/10/16 05:59:05;;;;;;;0.82;0.80;;;14.00;99.90;;;13.59;100.00;97204.81;4991176;28;20038;-44
2022/10/16 06:01:31;;;;;;;2.03;1.10;;;14.00;99.90;;;13.65;100.00;97212.44;4994993;28;20145;-43
2022/10/16 06:03:57;;;;;;;1.67;1.02;;;14.10;99.90;;;13.74;100.00;97227.00;4990795;28;20717;-42
2022/10/16 06:06:26;;;;;;;1.63;1.00;;;14.10;99.90;;;13.78;100.00;97225.88;4989675;28;20200;-41
2022/10/16 06:08:53;;;;;;;1.38;1.08;;;14.10;99.90;;;13.81;100.00;97225.75;4990399;28;20520;-43
2022/10/16 06:11:26;;;;;;;3.72;1.10;;;14.20;99.90;;;13.84;100.00;97240.66;4983692;28;20038;-41
2022/10/16 06:13:56;;;;;;;1.60;0.90;;;14.20;99.90;;;13.83;100.00;97233.63;4995417;28;20119;-42
2022/10/16 06:16:22;;;;;;;1.08;0.90;;;14.20;99.90;;;13.84;100.00;97238.00;4984575;28;20041;-43
2022/10/16 06:18:51;;;;;;;1.92;1.20;;;14.20;99.90;;;13.86;100.00;97244.91;4994588;28;20398;-42
2022/10/16 06:21:26;;;;;;;2.95;1.20;;;14.20;99.90;;;13.89;100.00;97247.41;4970971;28;20033;-43
2022/10/16 06:23:54;;;;;;;1.40;1.27;;;14.30;99.90;;;13.90;100.00;97242.94;4990146;28;20064;-43
2022/10/16 06:26:23;;;;;;;3.25;1.20;;;14.30;99.90;;;13.94;100.00;97242.72;4983896;28;20034;-43
2022/10/16 06:28:49;;;;;;;1.55;1.30;;;14.30;99.90;;;13.97;100.00;97246.16;4989804;28;20502;-43
2022/10/16 06:31:16;;;;;;;1.45;1.15;;;14.30;99.90;;;14.01;100.00;97245.03;4987234;28;20045;-42
2022/10/16 06:33:42;;;;;;;1.52;1.08;;;14.30;99.90;;;13.98;100.00;97234.59;4988767;28;21288;-42
2022/10/16 06:36:17;;;;;;;2.22;1.50;;;14.40;99.90;;;14.08;100.00;97247.28;4990823;28;20033;-42
2022/10/16 06:38:43;;;;;;;2.63;1.08;;;14.40;99.90;;;14.08;100.00;97239.31;4972882;28;20403;-42
2022/10/16 06:41:13;;;;;;;1.13;1.02;;;14.50;99.90;;;14.22;100.00;97249.19;4987480;28;20040;-42
2022/10/16 06:43:39;;;;;;;1.77;1.10;;;14.60;99.90;;;14.29;100.00;97253.22;4988634;28;20185;-42
2022/10/16 06:46:10;;;;;;;2.00;0.90;;;14.70;99.90;;;14.39;100.00;97268.63;4989070;28;20029;-41
2022/10/16 06:48:36;;;;;;;2.03;1.23;;;14.70;99.90;;;14.44;100.00;97271.91;4993995;28;20113;-42
2022/10/16 06:51:14;;;;;;;1.33;1.13;;;14.80;99.90;;;14.54;100.00;97273.13;4984684;28;20036;-43
2022/10/16 06:53:46;;;;;;;1.67;1.10;;;14.90;99.90;;;14.59;100.00;97271.09;4992516;28;20038;-43
2022/10/16 06:56:23;;;;;;;4.95;0.98;;;14.90;99.90;;;14.61;100.00;97269.22;4986083;28;20042;-43
2022/10/16 06:58:50;;;;;;;1.30;0.80;;;15.00;99.90;;;14.69;100.00;97274.09;4984582;28;20040;-42
2022/10/16 07:01:20;;;;;;;1.50;1.08;;;15.00;99.90;;;14.75;100.00;97278.19;4984177;28;20034;-42
2022/10/16 07:03:46;;;;;;;1.10;1.00;;;15.10;99.90;;;14.84;100.00;97288.28;4962781;28;20059;-43
2022/10/16 07:06:16;;;;;;;0.82;0.80;;;15.20;99.90;;;14.96;100.00;97289.41;4984519;28;20037;-41
2022/10/16 07:08:44;;;;;;;1.58;1.00;;;15.30;99.90;;;15.10;100.00;97286.84;4980756;28;20037;-42
2022/10/16 07:11:14;;;;;;;2.05;1.33;;;15.50;99.90;;;15.25;100.00;97293.06;4982298;28;20121;-43
2022/10/16 07:13:42;;;;;;;2.55;1.08;;;15.60;99.90;;;15.42;100.00;97300.94;4988524;28;20034;-42
2022/10/16 07:16:13;;;;;;;2.05;1.00;;;15.70;99.90;;;15.56;100.00;97294.81;4987265;28;20041;-43
2022/10/16 07:18:40;;;;;;;1.42;1.00;;;15.90;99.90;;;15.60;100.00;97295.50;4981411;28;20046;-43
2022/10/16 07:21:25;;;;;;;1.15;0.93;;;16.00;99.90;;;15.73;100.00;97315.06;4985540;28;20034;-41
2022/10/16 07:23:52;;;;;;;3.30;1.40;;;16.00;99.90;;;15.68;100.00;97313.63;4976741;28;20188;-42
2022/10/16 07:26:18;;;;;;;2.00;1.17;;;16.10;99.90;;;15.68;100.00;97319.78;4968962;28;21557;-43
2022/10/16 07:28:44;;;;;;;2.10;1.13;;;16.10;99.90;;;15.70;100.00;97327.69;4994235;28;20037;-44
2022/10/16 07:31:15;;;;;;;2.92;0.98;;;16.00;99.90;;;15.68;100.00;97329.59;4992901;28;20033;-43
2022/10/16 07:33:44;;;;;;;2.25;1.23;;;16.00;99.90;;;15.61;100.00;97329.06;4989710;28;20042;-43
2022/10/16 07:36:11;;;;;;;2.00;1.25;;;15.90;99.90;;;15.51;100.00;97331.44;4983481;28;20038;-42
2022/10/16 07:38:37;;;;;;;1.23;1.10;;;15.90;99.90;;;15.45;100.00;97330.00;4971166;28;20558;-42
2022/10/16 07:41:07;;;;;;;1.10;0.90;;;15.80;99.90;;;15.46;100.00;97336.16;4994969;28;20031;-41
2022/10/16 07:43:33;;;;;;;2.25;1.33;;;15.80;99.90;;;15.45;100.00;97324.66;4992303;28;20038;-43
2022/10/16 07:46:00;;;;;;;1.98;1.40;;;15.80;99.90;;;15.49;100.00;97325.34;4986741;28;20022;-43
2022/10/16 07:48:32;;;;;;;2.35;1.45;;;15.80;99.90;;;15.55;100.00;97335.63;4987277;28;20128;-42
2022/10/16 07:51:02;;;;;;;2.70;1.23;;;15.90;99.90;;;15.66;100.00;97338.50;4990281;28;20099;-43
2022/10/16 07:53:28;;;;;;;2.13;1.00;;;16.00;99.90;;;15.81;100.00;97343.91;4976786;28;20038;-42
2022/10/16 07:56:00;;;;;;;3.47;1.00;;;16.10;99.90;;;15.95;100.00;97351.06;4993055;28;20033;-41
2022/10/16 07:58:27;;;;;;;1.05;0.90;;;16.20;99.90;;;16.07;100.00;97352.16;4978400;28;20036;-42
2022/10/16 08:00:53;;;;;;;4.50;1.10;;;16.40;99.90;;;16.19;100.00;97351.41;4995541;28;20092;-44
2022/10/16 08:03:19;;;;;;;2.58;1.27;;;16.50;99.90;;;16.07;100.00;97326.38;4985632;28;20030;-46
2022/10/16 08:05:44;;;;;;;1.20;1.00;;;16.60;99.90;;;16.40;100.00;97354.56;4985700;28;20029;-42
2022/10/16 08:08:15;;;;;;;3.03;0.90;;;16.70;99.90;;;16.57;100.00;97356.19;4987400;28;20443;-42
2022/10/16 08:10:41;;;;;;;2.00;1.10;;;16.90;99.90;;;16.72;100.00;97357.88;4989399;28;20036;-42
2022/10/16 08:13:07;;;;;;;3.72;1.30;;;17.10;99.90;;;16.76;100.00;97354.09;4991878;28;20037;-42
2022/10/16 08:15:33;;;;;;;1.83;1.10;;;17.30;99.90;;;17.03;100.00;97350.69;4985361;28;20313;-41
2022/10/16 08:18:01;;;;;;;1.88;1.23;;;17.40;99.90;;;17.25;100.00;97352.81;4989674;28;20034;-44
2022/10/16 08:20:29;;;;;;;1.63;1.00;;;17.60;99.90;;;17.41;100.00;97363.34;4988468;28;20496;-42
2022/10/16 08:22:55;;;;;;;2.60;0.98;;;17.80;99.90;;;17.55;100.00;97375.78;4989920;28;20033;-44
2022/10/16 08:25:24;;;;;;;3.40;1.08;;;17.90;99.90;;;17.66;100.00;97364.41;4992368;28;20068;-43
2022/10/16 08:27:50;;;;;;;2.70;1.38;;;18.00;99.90;;;17.69;100.00;97373.03;4993355;28;20419;-42
2022/10/16 08:30:18;;;;;;;1.10;1.00;;;18.10;99.90;;;17.83;100.00;97379.25;4966463;28;20033;-42
2022/10/16 08:32:44;;;;;;;3.90;1.60;;;18.20;99.90;;;18.00;100.00;97387.03;4987289;28;20033;-43
2022/10/16 08:35:11;;;;;;;2.92;1.38;;;18.30;99.90;;;18.20;100.00;97387.50;4995648;28;20037;-42
2022/10/16 08:37:38;;;;;;;6.90;2.03;;;18.50;99.90;;;18.32;100.00;97383.97;4986410;28;20165;-42
2022/10/16 08:40:06;;;;;;;2.63;1.42;;;18.60;99.90;;;18.49;100.00;97385.50;4989409;28;20109;-42
2022/10/16 08:43:00;;;;;;;3.25;1.50;;;18.80;99.90;;;18.59;100.00;97394.59;4986896;28;20033;-43
2022/10/16 08:46:13;;;;;;;5.75;1.80;;;18.90;99.90;;;18.46;100.00;97380.34;4982961;28;20038;-42
2022/10/16 08:48:47;;;;;;;7.05;1.60;;;18.90;99.90;;;18.58;100.00;97400.88;4976205;28;23346;-43
2022/10/16 08:51:35;;;;;;;3.53;1.50;;;18.90;99.90;;;18.62;100.00;97394.34;4988952;28;20034;-44
2022/10/16 08:54:22;;;;;;;1.38;1.00;;;18.90;99.90;;;18.73;100.00;97392.75;4977983;28;20550;-42
2022/10/16 08:56:47;;;;;;;3.72;1.48;;;19.10;99.90;;;18.81;100.00;97396.63;4973994;28;20061;-44
2022/10/16 08:59:16;;;;;;;1.67;1.27;;;19.10;99.90;;;18.84;100.00;97400.88;4991723;28;20052;-43
2022/10/16 09:01:45;;;;;;;1.35;1.10;;;19.10;99.90;;;18.84;100.00;97396.44;4973120;28;20057;-44
2022/10/16 09:04:44;;;;;;;1.23;1.13;;;19.20;99.90;;;18.84;100.00;97393.75;4971400;28;20022;-43
2022/10/16 09:07:25;;;;;;;2.13;1.00;;;19.20;99.90;;;18.94;100.00;97393.09;4964770;28;20045;-43
2022/10/16 09:10:20;;;;;;;1.65;1.10;;;19.30;99.90;;;18.98;100.00;97395.41;4975176;28;20483;-46
2022/10/16 09:13:12;;;;;;;1.17;1.00;;;19.30;99.90;;;18.94;100.00;97393.09;4975579;28;21918;-43
2022/10/16 09:16:21;;;;;;;2.97;0.93;;;19.30;99.90;;;18.86;100.00;97383.81;4946753;28;20038;-43
2022/10/16 09:19:18;;;;;;;1.80;1.17;;;19.20;99.90;;;18.87;100.00;97390.84;4983475;28;20556;-45
2022/10/16 09:21:47;;;;;;;2.13;1.02;;;19.20;99.90;;;18.81;100.00;97407.31;4987597;28;20030;-47
2022/10/16 09:24:20;;;;;;;3.35;0.88;;;19.10;99.90;;;18.73;100.00;97414.13;4991085;28;20088;-44
2022/10/16 09:26:46;;;;;;;2.55;0.90;;;19.00;99.90;;;18.60;100.00;97414.97;4989477;28;20036;-44
2022/10/16 09:29:24;;;;;;;0.80;0.80;;;18.90;99.90;;;18.45;100.00;97408.88;4992968;28;20037;-43
2022/10/16 09:31:51;;;;;;;1.63;1.10;;;18.80;99.90;;;18.35;100.00;97414.97;4987455;28;20152;-46
2022/10/16 09:34:30;;;;;;;2.25;1.10;;;18.70;99.90;;;18.26;100.00;97421.78;4988639;28;20041;-44
2022/10/16 09:36:59;;;;;;;3.13;1.50;;;18.60;99.90;;;18.21;100.00;97424.75;4998958;23;20438;-45
2022/10/16 09:39:25;;;;;;;1.83;1.00;;;18.50;99.90;;;18.12;100.00;97423.56;4993198;28;20609;-47
2022/10/16 09:41:51;;;;;;;2.38;1.10;;;18.40;99.90;;;18.07;100.00;97427.47;4996592;28;20093;-46
2022/10/16 09:44:27;;;;;;;1.45;1.08;;;18.40;99.90;;;18.07;100.00;97420.34;4993734;28;20115;-47
2022/10/16 09:47:23;;;;;;;1.45;1.10;;;18.40;99.90;;;18.07;100.00;97420.34;4988536;28;20034;-47
2022/10/16 09:49:58;;;;;;;3.40;1.13;;;18.40;99.90;;;18.03;100.00;97426.84;4991521;28;20029;-45
2022/10/16 09:52:25;;;;;;;0.98;0.80;;;18.40;99.90;;;18.02;100.00;97425.13;4991459;28;20095;-45
2022/10/16 09:54:57;;;;;;;1.45;1.20;;;18.30;99.90;;;18.02;100.00;97417.13;4986730;28;20856;-45
2022/10/16 09:57:24;;;;;;;1.10;1.00;;;18.40;99.90;;;18.04;100.00;97401.88;4987883;28;20073;-44
2022/10/16 09:59:55;;;;;;;4.03;1.27;;;18.50;99.90;;;18.26;100.00;97425.28;4987950;28;20026;-46
2022/10/16 10:02:37;;;;;;;2.10;1.10;;;18.60;99.90;;;18.40;100.00;97440.38;4984557;28;20152;-44
2022/10/16 10:05:06;;;;;;;;;;;18.80;99.90;;;18.59;100.00;97436.44;4988016;28;20022;-45
2022/10/16 10:07:43;;;;;;;2.05;1.00;;;19.00;99.90;;;18.83;100.00;97436.59;4997188;28;19917;-46
2022/10/16 10:10:30;;;;;;;1.17;1.08;;;19.10;99.90;;;19.03;100.00;97441.38;4970172;28;20041;-45
2022/10/16 10:12:57;;;;;;;1.42;0.93;;;19.40;99.90;;;19.25;100.00;97458.56;4971451;28;20614;-45
2022/10/16 10:15:24;;;;;;;4.30;1.10;;;19.50;99.90;;;19.35;100.00;97450.78;4985758;28;20169;-47
2022/10/16 10:17:57;;;;;;;1.48;1.10;;;19.70;99.90;;;19.50;100.00;97457.66;4977442;28;20034;-46
2022/10/16 10:20:37;;;;;;;1.55;0.95;;;19.80;99.90;;;19.56;100.00;97454.56;4983657;28;20756;-46
2022/10/16 10:23:26;;;;;;;1.42;1.00;;;19.90;99.90;;;19.61;100.00;97459.56;4986930;28;20050;-44
2022/10/16 10:26:14;;;;;;;2.05;1.02;;;20.00;99.90;;;19.67;100.00;97450.22;4989282;28;20053;-46
2022/10/16 10:28:56;;;;;;;2.92;1.00;;;20.00;99.90;;;19.70;100.00;97439.31;4984504;28;20507;-45